Time;durP1;ratioP1;P1;durP2;ratioP2;P2;SDS_P1;SDS_P2;PMS_P1;PMS_P2;Temp;Humidity;BMP_temperature;BMP_pressure;BME280_temperature;BME280_humidity;BME280_pressure;Samples;Min_cycle;Max_cycle;Signal;HPM_P1;HPM_P2
2022/02/05 12:04:20;;;;;;;18.23;12.07;;;;;;;;;;7369931;19;132627;-15
2022/02/05 12:06:54;;;;;;;16.95;11.73;;;;;;;;;;7363944;19;153906;-14
2022/02/05 12:09:42;;;;;;;19.85;11.30;;;;;;;;;;7367385;19;161912;-15
2022/02/05 12:12:40;;;;;;;17.92;10.98;;;;;;;;;;7362846;19;162339;-15
2022/02/05 12:15:23;;;;;;;17.92;11.63;;;;;;;;;;7363587;19;153967;-14
2022/02/05 12:18:13;;;;;;;20.83;11.90;;;;;;;;;;7363930;19;153739;-15
2022/02/05 12:21:25;;;;;;;20.25;11.18;;;;;;;;;;7363230;19;161908;-14
2022/02/05 12:27:01;;;;;;;;;;;;;;;;;;7364188;19;153756;-14
2022/02/05 12:29:34;;;;;;;18.85;10.90;;;;;;;;;;7363594;19;153655;-14
2022/02/05 12:32:07;;;;;;;;;;;;;;;;;;7362802;19;161998;-15
2022/02/05 12:34:42;;;;;;;17.67;10.55;;;;;;;;;;7363064;19;162512;-14
2022/02/05 12:37:16;;;;;;;17.08;10.38;;;;;;;;;;7366084;19;153998;-14
2022/02/05 12:39:47;;;;;;;18.73;10.93;;;;;;;;;;7366435;19;153889;-14
2022/02/05 12:42:20;;;;;;;18.95;11.02;;;;;;;;;;7359708;19;161812;-14
2022/02/05 12:44:51;;;;;;;17.50;10.40;;;;;;;;;;7366350;19;162474;-14
2022/02/05 12:47:29;;;;;;;19.40;10.93;;;;;;;;;;7364722;19;153744;-15
2022/02/05 12:50:07;;;;;;;15.65;10.43;;;;;;;;;;7365923;19;153862;-15
2022/02/05 12:52:41;;;;;;;16.42;10.90;;;;;;;;;;7365518;19;161771;-14
2022/02/05 12:55:15;;;;;;;21.88;11.60;;;;;;;;;;7363835;19;162523;-15
2022/02/05 12:57:47;;;;;;;15.65;10.50;;;;;;;;;;7365226;19;154196;-14
2022/02/05 13:00:20;;;;;;;15.47;9.87;;;;;;;;;;7366047;19;153363;-14
2022/02/05 13:02:51;;;;;;;;;;;;;;;;;;7360425;19;161911;-15
2022/02/05 13:05:33;;;;;;;15.73;9.73;;;;;;;;;;7331342;19;162317;-14
2022/02/05 13:08:08;;;;;;;17.58;9.63;;;;;;;;;;7334394;19;153929;-14
2022/02/05 13:10:49;;;;;;;14.88;8.75;;;;;;;;;;7335489;19;153710;-15
2022/02/05 13:13:22;;;;;;;17.80;9.80;;;;;;;;;;7334704;19;161951;-14
2022/02/05 13:16:06;;;;;;;19.70;10.32;;;;;;;;;;7333330;19;162399;-14
2022/02/05 13:18:44;;;;;;;16.95;9.70;;;;;;;;;;7337167;19;154185;-14
2022/02/05 13:26:55;;;;;;;15.82;9.82;;;;;;;;;;7334592;19;162296;-15
2022/02/05 13:29:40;;;;;;;15.85;9.23;;;;;;;;;;7336127;19;154197;-14
2022/02/05 13:35:04;;;;;;;13.15;8.90;;;;;;;;;;7331740;19;161896;-13
2022/02/05 13:37:48;;;;;;;15.35;9.60;;;;;;;;;;7327619;19;162316;-14
2022/02/05 13:40:30;;;;;;;13.90;9.23;;;;;;;;;;7334786;19;154072;-14
2022/02/05 13:43:13;;;;;;;12.70;8.90;;;;;;;;;;7335973;19;153559;-15
2022/02/05 13:45:45;;;;;;;12.25;8.27;;;;;;;;;;7332768;19;162358;-13
2022/02/05 13:48:25;;;;;;;12.50;9.13;;;;;;;;;;7333553;19;162511;-15
2022/02/05 13:51:06;;;;;;;13.77;8.82;;;;;;;;;;7335815;19;153946;-14
2022/02/05 13:53:49;;;;;;;12.75;8.75;;;;;;;;;;7326144;19;153464;-16
2022/02/05 13:56:24;;;;;;;13.15;5.68;;;;;;;;;;7330875;19;161885;-17
2022/02/05 13:58:55;;;;;;;9.98;5.55;;;;;;;;;;7328555;19;162624;-16
2022/02/05 14:01:31;;;;;;;9.90;6.13;;;;;;;;;;7330721;19;154008;-14
2022/02/05 14:04:15;;;;;;;10.23;5.57;;;;;;;;;;7327825;19;153640;-14
2022/02/05 14:06:56;;;;;;;12.13;5.57;;;;;;;;;;7327155;19;161923;-16
2022/02/05 14:09:29;;;;;;;9.05;5.53;;;;;;;;;;7330148;19;162726;-16
2022/02/05 14:12:16;;;;;;;9.48;5.88;;;;;;;;;;7330757;19;154037;-14
2022/02/05 14:15:04;;;;;;;9.27;6.72;;;;;;;;;;7326704;19;153702;-14
2022/02/05 14:17:35;;;;;;;8.85;6.07;;;;;;;;;;7329889;19;162240;-14
2022/02/05 14:20:11;;;;;;;8.55;5.90;;;;;;;;;;7330116;19;162578;-14
2022/02/05 14:22:47;;;;;;;10.98;6.35;;;;;;;;;;7331353;19;153932;-15
2022/02/05 14:25:23;;;;;;;9.00;6.00;;;;;;;;;;7326205;19;154045;-14
2022/02/05 14:28:13;;;;;;;9.18;5.60;;;;;;;;;;7331326;19;161625;-14
2022/02/05 14:31:01;;;;;;;8.30;5.18;;;;;;;;;;7327173;19;162590;-14
2022/02/05 14:33:43;;;;;;;8.27;5.72;;;;;;;;;;7331895;19;153910;-15
2022/02/05 14:36:37;;;;;;;7.53;5.80;;;;;;;;;;7331536;19;153477;-14
2022/02/05 14:41:54;;;;;;;11.90;5.88;;;;;;;;;;7330750;19;162551;-16
2022/02/05 14:44:29;;;;;;;10.13;5.82;;;;;;;;;;7331095;19;154118;-15
2022/02/05 14:47:00;;;;;;;9.20;5.53;;;;;;;;;;7330857;19;153832;-14
2022/02/05 14:49:32;;;;;;;7.43;5.80;;;;;;;;;;7330648;19;161836;-14
2022/02/05 14:52:04;;;;;;;8.35;5.80;;;;;;;;;;7328147;19;162527;-15
2022/02/05 14:54:35;;;;;;;7.18;5.55;;;;;;;;;;7332015;19;153915;-15
2022/02/05 14:57:07;;;;;;;6.43;4.82;;;;;;;;;;7334384;19;153608;-15
2022/02/05 14:59:42;;;;;;;6.68;4.38;;;;;;;;;;7329389;19;161840;-16
2022/02/05 15:02:14;;;;;;;7.50;5.20;;;;;;;;;;7331233;19;162509;-14
2022/02/05 15:04:45;;;;;;;7.80;4.95;;;;;;;;;;7330398;19;154243;-14
2022/02/05 15:07:19;;;;;;;7.15;4.97;;;;;;;;;;7332442;19;153560;-14
2022/02/05 15:09:50;;;;;;;9.45;5.97;;;;;;;;;;7332992;19;162126;-15
2022/02/05 15:12:22;;;;;;;8.32;5.18;;;;;;;;;;7329535;19;162392;-15
2022/02/05 15:14:56;;;;;;;9.50;5.07;;;;;;;;;;7328008;19;154075;-14
2022/02/05 15:17:28;;;;;;;9.57;5.45;;;;;;;;;;7329475;19;153577;-15
2022/02/05 15:20:00;;;;;;;7.13;4.45;;;;;;;;;;7329683;19;162468;-14
2022/02/05 15:22:32;;;;;;;8.40;5.53;;;;;;;;;;7332105;19;162700;-14
2022/02/05 15:25:03;;;;;;;6.80;4.85;;;;;;;;;;7329283;19;153979;-16
2022/02/05 15:27:34;;;;;;;6.50;4.53;;;;;;;;;;7327369;19;153526;-15
2022/02/05 15:30:10;;;;;;;7.22;4.68;;;;;;;;;;7327749;19;161845;-15
2022/02/05 15:32:42;;;;;;;6.90;4.97;;;;;;;;;;7329262;19;162433;-15
2022/02/05 15:35:15;;;;;;;6.53;4.40;;;;;;;;;;7327402;19;154072;-15
2022/02/05 15:37:46;;;;;;;8.02;5.30;;;;;;;;;;7332442;19;153571;-19
2022/02/05 15:43:24;;;;;;;7.32;4.82;;;;;;;;;;7328838;19;161929;-15
2022/02/05 15:46:00;;;;;;;8.25;5.18;;;;;;;;;;7328708;19;154072;-14
2022/02/05 15:48:31;;;;;;;6.85;4.53;;;;;;;;;;7328802;19;154825;-15
2022/02/05 15:51:03;;;;;;;7.50;4.32;;;;;;;;;;7328177;19;161967;-14
2022/02/05 15:53:38;;;;;;;14.82;5.13;;;;;;;;;;7329502;19;162798;-14
2022/02/05 15:56:23;;;;;;;7.03;5.00;;;;;;;;;;7328626;19;154114;-15
2022/02/05 15:58:57;;;;;;;5.95;4.25;;;;;;;;;;7327242;19;153553;-14
2022/02/05 16:01:31;;;;;;;5.80;4.55;;;;;;;;;;7330452;19;161939;-14
2022/02/05 16:04:02;;;;;;;6.43;4.47;;;;;;;;;;7325221;19;162533;-15
2022/02/05 16:06:36;;;;;;;5.80;4.15;;;;;;;;;;7329228;19;153985;-15
2022/02/05 16:09:07;;;;;;;5.55;4.18;;;;;;;;;;7328338;19;153523;-15
2022/02/05 16:11:39;;;;;;;7.15;4.50;;;;;;;;;;7328385;19;162018;-14
2022/02/05 16:14:10;;;;;;;5.97;3.85;;;;;;;;;;7330569;19;162789;-14
2022/02/05 16:16:44;;;;;;;7.03;4.70;;;;;;;;;;7331007;19;153903;-15
2022/02/05 16:19:15;;;;;;;5.18;4.35;;;;;;;;;;7329926;19;153635;-15
2022/02/05 16:21:46;;;;;;;6.65;4.30;;;;;;;;;;7329285;19;161795;-13
2022/02/05 16:24:18;;;;;;;5.37;4.13;;;;;;;;;;7331189;19;162520;-14
2022/02/05 16:26:50;;;;;;;5.93;5.03;;;;;;;;;;7328660;19;153974;-13
2022/02/05 16:29:26;;;;;;;7.25;4.07;;;;;;;;;;7330118;19;153648;-14
2022/02/05 16:32:01;;;;;;;5.32;3.80;;;;;;;;;;7328482;19;161861;-15
2022/02/05 16:34:40;;;;;;;5.25;3.90;;;;;;;;;;7328128;19;162815;-15
2022/02/05 16:37:13;;;;;;;6.72;4.55;;;;;;;;;;7327835;19;154096;-16
2022/02/05 16:39:45;;;;;;;4.38;3.83;;;;;;;;;;7331382;19;153555;-15
2022/02/05 16:42:16;;;;;;;5.47;4.50;;;;;;;;;;7334868;19;162002;-14
2022/02/05 16:44:48;;;;;;;5.60;4.20;;;;;;;;;;7336174;19;162867;-16
2022/02/05 16:47:22;;;;;;;6.63;4.38;;;;;;;;;;7336737;19;154374;-15
2022/02/05 16:49:53;;;;;;;6.65;4.00;;;;;;;;;;7337595;19;153525;-15
2022/02/05 16:52:27;;;;;;;6.18;4.20;;;;;;;;;;7335695;19;162160;-15
2022/02/05 16:54:59;;;;;;;5.28;3.80;;;;;;;;;;7335941;19;162371;-15
2022/02/05 16:57:30;;;;;;;5.65;3.65;;;;;;;;;;7334417;19;154147;-15
2022/02/05 17:00:02;;;;;;;5.18;3.83;;;;;;;;;;7336317;19;153706;-14
2022/02/05 17:02:35;;;;;;;5.15;3.92;;;;;;;;;;7332705;19;161825;-14
2022/02/05 17:05:08;;;;;;;5.13;3.78;;;;;;;;;;7336794;19;162346;-14
2022/02/05 17:08:01;;;;;;;4.80;3.53;;;;;;;;;;7336692;19;154099;-15
2022/02/05 17:10:33;;;;;;;4.45;3.60;;;;;;;;;;7334096;19;153407;-14
2022/02/05 17:13:05;;;;;;;5.30;3.90;;;;;;;;;;7329833;19;161631;-15
2022/02/05 17:15:38;;;;;;;5.90;3.85;;;;;;;;;;7332411;19;162734;-15
2022/02/05 17:18:18;;;;;;;5.10;3.80;;;;;;;;;;7333273;19;154071;-15
2022/02/05 17:20:52;;;;;;;6.68;4.20;;;;;;;;;;7333501;19;153764;-15
2022/02/05 17:23:46;;;;;;;4.80;3.45;;;;;;;;;;7329426;19;161946;-15
2022/02/05 17:26:20;;;;;;;4.95;3.72;;;;;;;;;;7332177;19;162686;-14
2022/02/05 17:28:52;;;;;;;5.82;4.15;;;;;;;;;;7329888;19;154094;-15
2022/02/05 17:31:24;;;;;;;5.20;4.07;;;;;;;;;;7328450;19;154029;-15
2022/02/05 17:33:58;;;;;;;4.40;3.25;;;;;;;;;;7331090;19;161977;-15
2022/02/05 17:36:30;;;;;;;5.05;3.80;;;;;;;;;;7331323;19;162473;-14
2022/02/05 17:39:05;;;;;;;3.97;3.28;;;;;;;;;;7330708;19;154843;-15
2022/02/05 17:41:38;;;;;;;3.13;2.83;;;;;;;;;;7331639;19;153511;-15
2022/02/05 17:44:09;;;;;;;4.73;3.40;;;;;;;;;;7333453;19;161991;-15
2022/02/05 17:46:44;;;;;;;6.72;3.70;;;;;;;;;;7334445;19;162542;-14
2022/02/05 17:49:18;;;;;;;5.00;3.63;;;;;;;;;;7331191;19;154163;-15
2022/02/05 17:51:50;;;;;;;5.60;3.70;;;;;;;;;;7333586;19;153458;-15
2022/02/05 17:54:22;;;;;;;4.10;3.13;;;;;;;;;;7328969;19;162102;-14
2022/02/05 17:56:56;;;;;;;4.28;2.45;;;;;;;;;;7328575;19;162616;-15
2022/02/05 17:59:27;;;;;;;6.55;2.95;;;;;;;;;;7331816;19;153980;-15
2022/02/05 18:01:59;;;;;;;4.43;2.22;;;;;;;;;;7333867;19;153537;-13
2022/02/05 18:04:32;;;;;;;3.80;2.40;;;;;;;;;;7331442;19;161839;-14
2022/02/05 18:07:08;;;;;;;3.83;2.00;;;;;;;;;;7331269;19;162404;-13
2022/02/05 18:09:57;;;;;;;4.85;2.50;;;;;;;;;;7331078;19;154195;-14
2022/02/05 18:12:35;;;;;;;3.00;1.90;;;;;;;;;;7331063;19;153672;-15
2022/02/05 18:15:07;;;;;;;5.13;1.85;;;;;;;;;;7330877;19;162154;-13
2022/02/05 18:17:39;;;;;;;3.67;2.15;;;;;;;;;;7327687;19;162614;-14
2022/02/05 18:20:14;;;;;;;4.40;2.22;;;;;;;;;;7330641;19;154311;-13
2022/02/05 18:22:45;;;;;;;2.45;2.05;;;;;;;;;;7331710;19;153742;-13
2022/02/05 18:25:16;;;;;;;3.28;2.10;;;;;;;;;;7330607;19;162069;-14
2022/02/05 18:27:47;;;;;;;3.85;2.13;;;;;;;;;;7330536;19;162345;-14
2022/02/05 18:30:19;;;;;;;4.22;1.80;;;;;;;;;;7329864;19;154291;-14
2022/02/05 18:32:50;;;;;;;4.40;2.28;;;;;;;;;;7331867;19;153477;-14
2022/02/05 18:35:26;;;;;;;4.15;2.85;;;;;;;;;;7330642;19;161790;-14
2022/02/05 18:37:59;;;;;;;3.67;2.40;;;;;;;;;;7328057;19;162386;-15
2022/02/05 18:40:32;;;;;;;3.88;2.47;;;;;;;;;;7330701;19;153971;-14
2022/02/05 18:43:04;;;;;;;3.30;2.30;;;;;;;;;;7335031;19;153497;-14
2022/02/05 18:45:39;;;;;;;4.10;2.70;;;;;;;;;;7332458;19;161792;-15
2022/02/05 18:48:11;;;;;;;2.92;2.53;;;;;;;;;;7330058;19;162401;-16
2022/02/05 18:50:48;;;;;;;3.60;2.30;;;;;;;;;;7329697;19;154002;-14
2022/02/05 18:53:22;;;;;;;3.05;1.88;;;;;;;;;;7326993;19;153629;-14
2022/02/05 18:55:53;;;;;;;5.25;2.38;;;;;;;;;;7331243;19;161797;-14
2022/02/05 18:58:24;;;;;;;4.10;2.55;;;;;;;;;;7328131;19;162403;-14
2022/02/05 19:01:09;;;;;;;4.68;2.75;;;;;;;;;;7332700;19;153969;-15
2022/02/05 19:15:10;;;;;;;3.63;2.40;;;;;;;;;;7325925;19;153512;-14
2022/02/05 19:20:25;;;;;;;4.43;2.60;;;;;;;;;;7326524;19;162522;-13
2022/02/05 19:23:00;;;;;;;3.22;2.22;;;;;;;;;;7326004;19;154097;-14
2022/02/05 19:25:31;;;;;;;2.97;2.20;;;;;;;;;;7326758;19;153621;-15
2022/02/05 19:28:03;;;;;;;4.22;2.08;;;;;;;;;;7326123;19;162116;-14
2022/02/05 19:30:35;;;;;;;2.78;2.17;;;;;;;;;;7328670;19;162440;-14
2022/02/05 19:33:06;;;;;;;3.03;2.20;;;;;;;;;;7326293;19;154013;-14
2022/02/05 19:35:39;;;;;;;4.15;2.40;;;;;;;;;;7325169;19;154071;-15
2022/02/05 19:38:13;;;;;;;2.50;1.83;;;;;;;;;;7324398;19;162183;-15
2022/02/05 19:40:49;;;;;;;4.60;2.40;;;;;;;;;;7327825;19;163006;-14
2022/02/05 19:43:24;;;;;;;2.42;2.10;;;;;;;;;;7329093;19;154677;-14
2022/02/05 19:46:00;;;;;;;3.10;2.25;;;;;;;;;;7332277;19;153479;-14
2022/02/05 19:48:33;;;;;;;2.10;1.90;;;;;;;;;;7331618;19;161840;-15
2022/02/05 19:51:05;;;;;;;3.03;2.30;;;;;;;;;;7322723;19;162487;-14
2022/02/05 19:53:39;;;;;;;2.38;2.10;;;;;;;;;;7323531;19;154601;-14
2022/02/05 19:56:10;;;;;;;4.32;2.63;;;;;;;;;;7327105;19;153854;-14
2022/02/05 19:58:41;;;;;;;5.30;2.22;;;;;;;;;;7323991;19;162758;-15
2022/02/05 20:01:12;;;;;;;2.95;2.28;;;;;;;;;;7322858;19;162358;-15
2022/02/05 20:03:44;;;;;;;2.60;1.85;;;;;;;;;;7322087;19;153701;-14
2022/02/05 20:06:17;;;;;;;6.13;2.35;;;;;;;;;;7323450;19;153791;-15
2022/02/05 20:08:51;;;;;;;3.63;2.10;;;;;;;;;;7324412;19;161797;-15
2022/02/05 20:11:23;;;;;;;3.63;2.05;;;;;;;;;;7323334;19;162382;-14
2022/02/05 20:13:59;;;;;;;3.42;2.58;;;;;;;;;;7329707;19;153931;-15
2022/02/05 20:16:31;;;;;;;4.63;2.33;;;;;;;;;;7329021;19;153446;-14
2022/02/05 20:19:02;;;;;;;2.85;2.10;;;;;;;;;;7327547;19;161855;-15
2022/02/05 20:21:41;;;;;;;2.78;2.30;;;;;;;;;;7328421;19;162469;-14
2022/02/05 20:24:17;;;;;;;4.53;2.53;;;;;;;;;;7329406;19;153999;-14
2022/02/05 20:26:49;;;;;;;3.05;2.20;;;;;;;;;;7331806;19;154357;-15
2022/02/05 20:29:21;;;;;;;2.42;2.22;;;;;;;;;;7332670;19;161723;-15
2022/02/05 20:31:53;;;;;;;3.70;2.30;;;;;;;;;;7332474;19;163010;-14
2022/02/05 20:34:25;;;;;;;3.25;2.20;;;;;;;;;;7333761;19;153979;-14
2022/02/05 20:36:56;;;;;;;3.17;2.38;;;;;;;;;;7330419;19;154097;-15
2022/02/05 20:39:30;;;;;;;3.30;2.22;;;;;;;;;;7328392;19;161868;-15
2022/02/05 20:42:02;;;;;;;3.05;2.40;;;;;;;;;;7331528;19;162868;-15
2022/02/05 20:44:33;;;;;;;3.13;2.22;;;;;;;;;;7327907;19;153972;-15
2022/02/05 20:47:09;;;;;;;2.25;2.05;;;;;;;;;;7331320;19;153713;-15
2022/02/05 20:49:46;;;;;;;2.45;2.25;;;;;;;;;;7334268;19;161802;-15
2022/02/05 20:52:19;;;;;;;4.30;2.90;;;;;;;;;;7333780;19;163237;-15
2022/02/05 20:55:03;;;;;;;3.87;2.63;;;;;;;;;;7334280;19;156091;-15
2022/02/05 20:57:35;;;;;;;2.80;2.40;;;;;;;;;;7334332;19;153615;-15
2022/02/05 21:00:10;;;;;;;2.67;2.27;;;;;;;;;;7329904;19;162081;-15
2022/02/05 21:02:43;;;;;;;4.95;2.90;;;;;;;;;;7329084;19;162832;-15
2022/02/05 21:05:14;;;;;;;4.55;2.65;;;;;;;;;;7328969;19;154238;-16
2022/02/05 21:07:47;;;;;;;6.00;3.67;;;;;;;;;;7330163;19;153577;-14
2022/02/05 21:10:21;;;;;;;4.50;2.85;;;;;;;;;;7328988;19;161871;-14
2022/02/05 21:12:53;;;;;;;6.30;3.33;;;;;;;;;;7333638;19;162393;-15
2022/02/05 21:15:24;;;;;;;6.22;3.33;;;;;;;;;;7333691;19;154135;-16
2022/02/05 21:17:56;;;;;;;6.03;3.10;;;;;;;;;;7333102;19;153520;-15
2022/02/05 21:20:27;;;;;;;5.72;3.45;;;;;;;;;;7331733;19;162012;-15
2022/02/05 21:23:01;;;;;;;7.93;3.72;;;;;;;;;;7332659;19;162350;-15
2022/02/05 21:25:39;;;;;;;6.53;3.20;;;;;;;;;;7332198;19;154052;-14
2022/02/05 21:28:15;;;;;;;4.43;2.70;;;;;;;;;;7332111;19;153700;-15
2022/02/05 21:30:55;;;;;;;4.43;3.20;;;;;;;;;;7331445;19;161862;-15
2022/02/05 21:36:12;;;;;;;4.35;2.92;;;;;;;;;;7333287;19;154054;-15
2022/02/05 21:38:43;;;;;;;5.32;3.22;;;;;;;;;;7330105;19;153598;-16
2022/02/05 21:41:17;;;;;;;5.65;3.67;;;;;;;;;;7328971;19;162104;-14
2022/02/05 21:43:48;;;;;;;5.85;3.05;;;;;;;;;;7330958;19;162540;-14
2022/02/05 21:46:19;;;;;;;3.95;3.30;;;;;;;;;;7332386;19;154136;-16
2022/02/05 21:48:51;;;;;;;5.57;3.13;;;;;;;;;;7332669;19;153682;-15
2022/02/05 21:51:28;;;;;;;5.53;3.65;;;;;;;;;;7328779;19;162807;-15
2022/02/05 21:54:10;;;;;;;6.07;2.90;;;;;;;;;;7330268;19;162417;-15
2022/02/05 21:56:53;;;;;;;4.75;3.03;;;;;;;;;;7330793;19;154030;-15
2022/02/05 21:59:28;;;;;;;6.78;3.20;;;;;;;;;;7326716;19;153834;-14
2022/02/05 22:02:01;;;;;;;3.85;2.85;;;;;;;;;;7328526;19;162097;-16
2022/02/05 22:04:33;;;;;;;3.72;2.78;;;;;;;;;;7328379;19;162474;-15
2022/02/05 22:07:04;;;;;;;4.22;2.72;;;;;;;;;;7331341;19;154533;-15
2022/02/05 22:09:36;;;;;;;3.28;2.60;;;;;;;;;;7331931;19;153731;-14
2022/02/05 22:12:12;;;;;;;3.55;3.13;;;;;;;;;;7329824;19;162011;-14
2022/02/05 22:14:43;;;;;;;3.30;2.42;;;;;;;;;;7330519;19;162581;-15
2022/02/05 22:17:15;;;;;;;3.90;2.83;;;;;;;;;;7330250;19;154267;-15
2022/02/05 22:19:48;;;;;;;6.00;2.95;;;;;;;;;;7329348;19;154183;-15
2022/02/05 22:22:22;;;;;;;4.10;2.97;;;;;;;;;;7330995;19;162103;-13
2022/02/05 22:24:54;;;;;;;3.87;2.40;;;;;;;;;;7330302;19;162545;-15
2022/02/05 22:27:28;;;;;;;5.55;2.97;;;;;;;;;;7331651;19;153998;-15
2022/02/05 22:29:59;;;;;;;4.22;2.92;;;;;;;;;;7331361;19;153524;-14
2022/02/05 22:32:31;;;;;;;4.68;2.72;;;;;;;;;;7330965;19;161759;-16
2022/02/05 22:35:02;;;;;;;2.75;2.50;;;;;;;;;;7330788;19;162640;-15
2022/02/05 22:37:34;;;;;;;4.30;2.65;;;;;;;;;;7328961;19;153942;-14
2022/02/05 22:40:06;;;;;;;2.90;2.50;;;;;;;;;;7329830;19;154081;-15
2022/02/05 22:42:40;;;;;;;3.15;2.80;;;;;;;;;;7330872;19;161967;-15
2022/02/05 22:45:14;;;;;;;3.78;2.70;;;;;;;;;;7330931;19;163364;-15
2022/02/05 22:47:45;;;;;;;3.28;2.65;;;;;;;;;;7327900;19;154265;-15
2022/02/05 22:50:16;;;;;;;4.50;2.58;;;;;;;;;;7327600;19;153657;-15
2022/02/05 22:52:48;;;;;;;4.32;3.00;;;;;;;;;;7327259;19;162474;-15
2022/02/05 22:55:19;;;;;;;3.55;2.45;;;;;;;;;;7327071;19;162439;-14
2022/02/05 22:57:54;;;;;;;3.25;2.63;;;;;;;;;;7327155;19;154144;-14
2022/02/05 23:00:36;;;;;;;3.33;2.58;;;;;;;;;;7325153;19;153584;-14
2022/02/05 23:03:08;;;;;;;3.78;2.65;;;;;;;;;;7325525;19;161794;-15
2022/02/05 23:05:41;;;;;;;2.85;2.50;;;;;;;;;;7326157;19;162754;-14
2022/02/05 23:08:15;;;;;;;4.75;2.30;;;;;;;;;;7327583;19;153955;-14
2022/02/05 23:10:55;;;;;;;20.80;5.13;;;;;;;;;;7326885;19;153717;-15
2022/02/05 23:13:54;;;;;;;11.63;4.10;;;;;;;;;;7329214;19;161909;-15
2022/02/05 23:30:02;;;;;;;10.70;3.80;;;;;;;;;;7327093;19;163028;-13
2022/02/05 23:38:07;;;;;;;6.65;2.92;;;;;;;;;;7325838;19;154127;-15
2022/02/05 23:42:07;;;;;;;6.90;2.78;;;;;;;;;;7324922;19;154351;-14
2022/02/05 23:44:39;;;;;;;4.05;2.60;;;;;;;;;;7325381;19;153573;-15
2022/02/05 23:47:13;;;;;;;7.20;3.05;;;;;;;;;;7323544;19;162097;-15
2022/02/05 23:49:47;;;;;;;6.75;3.03;;;;;;;;;;7329305;19;162381;-15
2022/02/05 23:52:18;;;;;;;4.65;2.80;;;;;;;;;;7328136;19;154238;-15
2022/02/05 23:54:50;;;;;;;3.58;2.42;;;;;;;;;;7329363;19;153797;-21
2022/02/05 23:57:26;;;;;;;5.53;2.78;;;;;;;;;;7325805;19;162153;-15
2022/02/05 23:59:59;;;;;;;3.92;2.47;;;;;;;;;;7324003;19;162439;-14
